Time;durP1;ratioP1;P1;durP2;ratioP2;P2;SDS_P1;SDS_P2;PMS_P1;PMS_P2;Temp;Humidity;BMP_temperature;BMP_pressure;BME280_temperature;BME280_humidity;BME280_pressure;Samples;Min_cycle;Max_cycle;Signal;HPM_P1;HPM_P2
2023/06/14 00:02:41;;;;;;;9.48;7.65;;;;;;;-140.66;100.00;55571.53;5153921;27;20069;-77
2023/06/14 00:05:28;;;;;;;8.82;7.78;;;;;;;-140.66;100.00;55571.53;5139943;27;20018;-78
2023/06/14 00:08:14;;;;;;;11.45;7.35;;;;;;;-140.66;100.00;55571.53;5140221;27;20031;-78
2023/06/14 00:11:00;;;;;;;9.88;7.80;;;;;;;-140.66;100.00;55571.53;5154721;27;20031;-77
2023/06/14 00:13:46;;;;;;;10.63;8.10;;;;;;;-140.66;100.00;55571.53;5140182;27;20022;-78
2023/06/14 00:16:35;;;;;;;8.52;7.05;;;;;;;-140.66;100.00;55571.53;5138877;27;20035;-76
2023/06/14 00:19:20;;;;;;;10.50;8.00;;;;;;;-140.66;100.00;55571.53;5140458;27;20049;-77
2023/06/14 00:22:06;;;;;;;15.00;8.30;;;;;;;-140.66;100.00;55571.53;5140319;27;20459;-78
2023/06/14 00:24:52;;;;;;;10.32;8.40;;;;;;;-140.66;100.00;55571.53;5140300;27;20363;-77
2023/06/14 00:27:38;;;;;;;8.77;7.97;;;;;;;-140.66;100.00;55571.53;5158531;27;20037;-77
2023/06/14 00:30:24;;;;;;;9.02;7.80;;;;;;;-140.66;100.00;55571.53;5158852;27;20022;-78
2023/06/14 00:33:10;;;;;;;10.45;8.15;;;;;;;-140.66;100.00;55571.53;5158087;27;20376;-80
2023/06/14 00:35:55;;;;;;;11.32;7.55;;;;;;;-140.66;100.00;55571.53;5160004;27;20336;-77
2023/06/14 00:38:41;;;;;;;11.00;8.05;;;;;;;-140.66;100.00;55571.53;5144457;27;20042;-78
2023/06/14 00:41:27;;;;;;;8.48;7.47;;;;;;;-140.66;100.00;55571.53;5143565;27;20027;-78
2023/06/14 00:44:16;;;;;;;11.07;7.93;;;;;;;-140.66;100.00;55571.53;5143731;27;20061;-76
2023/06/14 00:47:02;;;;;;;8.38;7.47;;;;;;;-140.66;100.00;55571.53;5157776;27;20110;-77
2023/06/14 00:49:50;;;;;;;11.98;7.90;;;;;;;-140.66;100.00;55571.53;5143017;27;20030;-77
2023/06/14 00:52:36;;;;;;;10.45;8.13;;;;;;;-140.66;100.00;55571.53;5143311;27;20393;-77
2023/06/14 00:55:22;;;;;;;9.85;8.30;;;;;;;-140.66;100.00;55571.53;5158322;27;20105;-76
2023/06/14 00:58:09;;;;;;;9.30;7.63;;;;;;;-140.66;100.00;55571.53;5157514;27;20380;-78
2023/06/14 01:00:56;;;;;;;10.52;8.45;;;;;;;-140.66;100.00;55571.53;5157336;27;20099;-77
2023/06/14 01:03:41;;;;;;;9.82;7.63;;;;;;;-140.66;100.00;55571.53;5158530;27;20033;-77
2023/06/14 01:06:41;;;;;;;10.48;8.20;;;;;;;-140.66;100.00;55571.53;5158558;27;20452;-76
2023/06/14 01:09:43;;;;;;;9.05;7.70;;;;;;;-140.66;100.00;55571.53;5158788;27;20034;-77
2023/06/14 01:12:41;;;;;;;10.25;8.60;;;;;;;-140.66;100.00;55571.53;5143041;27;20055;-78
2023/06/14 01:15:30;;;;;;;12.63;8.68;;;;;;;-140.66;100.00;55571.53;5142073;27;20052;-78
2023/06/14 01:18:18;;;;;;;8.77;7.53;;;;;;;-140.66;100.00;55571.53;5142045;27;20054;-77
2023/06/14 01:21:05;;;;;;;10.68;7.60;;;;;;;-140.66;100.00;55571.53;5143268;27;20043;-78
2023/06/14 01:23:55;;;;;;;9.65;7.90;;;;;;;-140.66;100.00;55571.53;5158478;27;20026;-77
2023/06/14 01:26:45;;;;;;;8.70;7.78;;;;;;;-140.66;100.00;55571.53;5143231;27;20026;-78
2023/06/14 01:29:32;;;;;;;10.18;8.20;;;;;;;-140.66;100.00;55571.53;5157499;27;20044;-77
2023/06/14 01:32:18;;;;;;;9.48;8.13;;;;;;;-140.66;100.00;55571.53;5158173;27;20034;-77
2023/06/14 01:35:05;;;;;;;9.43;8.32;;;;;;;-140.66;100.00;55571.53;5157016;27;20576;-78
2023/06/14 01:37:52;;;;;;;12.73;8.02;;;;;;;-140.66;100.00;55571.53;5156365;27;20357;-77
2023/06/14 01:40:40;;;;;;;9.00;8.10;;;;;;;-140.66;100.00;55571.53;5156497;27;20105;-80
2023/06/14 01:43:27;;;;;;;9.25;8.00;;;;;;;-140.66;100.00;55571.53;5141602;27;20117;-77
2023/06/14 01:46:14;;;;;;;8.75;7.85;;;;;;;-140.66;100.00;55571.53;5156667;27;20026;-77
2023/06/14 01:49:00;;;;;;;9.55;7.75;;;;;;;-140.66;100.00;55571.53;5154981;27;20014;-77
2023/06/14 01:51:46;;;;;;;10.05;7.53;;;;;;;-140.66;100.00;55571.53;5170910;27;20018;-78
2023/06/14 01:54:31;;;;;;;10.93;8.45;;;;;;;-140.66;100.00;55571.53;5157819;27;20035;-78
2023/06/14 01:57:17;;;;;;;9.85;8.13;;;;;;;-140.66;100.00;55571.53;5142326;27;20038;-78
2023/06/14 02:00:08;;;;;;;9.07;7.82;;;;;;;-140.66;100.00;55571.53;5156641;27;20062;-78
2023/06/14 02:02:53;;;;;;;10.30;8.00;;;;;;;-140.66;100.00;55571.53;5143030;27;20027;-78
2023/06/14 02:05:39;;;;;;;10.95;8.13;;;;;;;-140.66;100.00;55571.53;5156869;27;20015;-81
2023/06/14 02:08:25;;;;;;;9.40;8.10;;;;;;;-140.66;100.00;55571.53;5144003;27;20030;-80
2023/06/14 02:11:11;;;;;;;10.48;8.07;;;;;;;-140.66;100.00;55571.53;5178260;27;20035;-78
2023/06/14 02:13:59;;;;;;;9.82;7.82;;;;;;;-140.66;100.00;55571.53;5142306;27;20065;-78
2023/06/14 02:16:48;;;;;;;9.50;7.72;;;;;;;-140.66;100.00;55571.53;5156901;27;20087;-77
2023/06/14 02:19:34;;;;;;;12.75;9.02;;;;;;;-140.66;100.00;55571.53;5156046;27;20047;-78
2023/06/14 02:22:21;;;;;;;11.63;8.57;;;;;;;-140.66;100.00;55571.53;5155846;27;20027;-78
2023/06/14 02:25:08;;;;;;;10.63;8.18;;;;;;;-140.66;100.00;55571.53;5156030;27;20027;-78
2023/06/14 02:27:55;;;;;;;11.35;8.75;;;;;;;-140.66;100.00;55571.53;5156333;27;20026;-77
2023/06/14 02:30:40;;;;;;;13.55;9.82;;;;;;;-140.66;100.00;55571.53;5156509;27;20113;-77
2023/06/14 02:33:26;;;;;;;12.35;9.68;;;;;;;-140.66;100.00;55571.53;5156988;27;20436;-77
2023/06/14 02:36:12;;;;;;;12.10;9.13;;;;;;;-140.66;100.00;55571.53;5141454;27;20126;-78
2023/06/14 02:38:57;;;;;;;12.05;9.35;;;;;;;-140.66;100.00;55571.53;5141472;27;20023;-77
2023/06/14 02:41:43;;;;;;;11.13;9.07;;;;;;;-140.66;100.00;55571.53;5155731;27;20405;-78
2023/06/14 02:44:29;;;;;;;13.90;9.52;;;;;;;-140.66;100.00;55571.53;5156820;27;20399;-78
2023/06/14 02:47:15;;;;;;;12.77;9.52;;;;;;;-140.66;100.00;55571.53;5155935;27;20065;-78
2023/06/14 02:50:01;;;;;;;12.73;9.88;;;;;;;-140.66;100.00;55571.53;5155230;27;20019;-78
2023/06/14 02:52:47;;;;;;;12.15;9.75;;;;;;;-140.66;100.00;55571.53;5140850;27;20022;-78
2023/06/14 02:55:33;;;;;;;11.43;8.90;;;;;;;-140.66;100.00;55571.53;5155944;27;20112;-78
2023/06/14 02:58:19;;;;;;;11.18;9.23;;;;;;;-140.66;100.00;55571.53;5156532;27;20019;-77
2023/06/14 03:01:07;;;;;;;13.60;9.60;;;;;;;-140.66;100.00;55571.53;5156462;27;20029;-78
2023/06/14 03:03:53;;;;;;;13.43;10.13;;;;;;;-140.66;100.00;55571.53;5141838;27;20090;-78
2023/06/14 03:06:39;;;;;;;12.82;9.80;;;;;;;-140.66;100.00;55571.53;5156293;27;20065;-77
2023/06/14 03:09:25;;;;;;;11.40;9.70;;;;;;;-140.66;100.00;55571.53;5140366;27;20102;-77
2023/06/14 03:12:11;;;;;;;11.93;9.70;;;;;;;-140.66;100.00;55571.53;5141496;27;20086;-78
2023/06/14 03:14:56;;;;;;;11.40;9.30;;;;;;;-140.66;100.00;55571.53;5155794;27;20030;-77
2023/06/14 03:17:45;;;;;;;11.35;9.32;;;;;;;-140.66;100.00;55571.53;5140958;27;20027;-78
2023/06/14 03:20:32;;;;;;;11.82;9.65;;;;;;;-140.66;100.00;55571.53;5140904;27;20046;-78
2023/06/14 03:23:18;;;;;;;13.73;10.00;;;;;;;-140.66;100.00;55571.53;5141013;27;20018;-78
2023/06/14 03:26:05;;;;;;;10.48;9.15;;;;;;;-140.66;100.00;55571.53;5156744;27;20029;-78
2023/06/14 03:28:50;;;;;;;11.80;9.68;;;;;;;-140.66;100.00;55571.53;5141878;27;20086;-77
2023/06/14 03:31:39;;;;;;;12.45;9.70;;;;;;;-140.66;100.00;55571.53;5139512;27;20057;-80
2023/06/14 03:34:26;;;;;;;12.65;9.65;;;;;;;-140.66;100.00;55571.53;5126984;27;20368;-77
2023/06/14 03:37:12;;;;;;;9.75;8.73;;;;;;;-140.66;100.00;55571.53;5154565;27;20026;-78
2023/06/14 03:39:57;;;;;;;10.70;8.82;;;;;;;-140.66;100.00;55571.53;5155188;27;20058;-78
2023/06/14 03:42:43;;;;;;;12.35;8.70;;;;;;;-140.66;100.00;55571.53;5140766;27;20075;-78
2023/06/14 03:45:30;;;;;;;11.77;8.98;;;;;;;-140.66;100.00;55571.53;5139947;27;20356;-77
2023/06/14 03:48:15;;;;;;;14.95;9.07;;;;;;;-140.66;100.00;55571.53;5139583;27;20026;-77
2023/06/14 03:51:02;;;;;;;12.27;8.90;;;;;;;-140.66;100.00;55571.53;5155452;27;20030;-78
2023/06/14 03:53:47;;;;;;;11.73;9.38;;;;;;;-140.66;100.00;55571.53;5140337;27;20065;-78
2023/06/14 03:56:33;;;;;;;10.20;8.93;;;;;;;-140.66;100.00;55571.53;5154729;27;20033;-78
2023/06/14 03:59:19;;;;;;;12.25;9.20;;;;;;;-140.66;100.00;55571.53;5140375;27;20049;-77
2023/06/14 04:02:06;;;;;;;11.27;8.65;;;;;;;-140.66;100.00;55571.53;5141137;27;20018;-77
2023/06/14 04:04:54;;;;;;;11.68;8.55;;;;;;;-140.66;100.00;55571.53;5139751;27;20444;-77
2023/06/14 04:07:40;;;;;;;11.02;9.23;;;;;;;-140.66;100.00;55571.53;5155275;27;20026;-78
2023/06/14 04:10:26;;;;;;;10.88;8.68;;;;;;;-140.66;100.00;55571.53;5155377;27;20019;-76
2023/06/14 04:13:13;;;;;;;12.73;8.60;;;;;;;-140.66;100.00;55571.53;5155031;27;20045;-77
2023/06/14 04:15:58;;;;;;;10.23;8.57;;;;;;;-140.66;100.00;55571.53;5155388;27;20337;-78
2023/06/14 04:18:44;;;;;;;13.07;8.55;;;;;;;-140.66;100.00;55571.53;5140084;27;20039;-74
2023/06/14 04:21:31;;;;;;;11.93;8.50;;;;;;;-140.66;100.00;55571.53;5154007;27;20039;-76
2023/06/14 04:24:16;;;;;;;13.65;9.10;;;;;;;-140.66;100.00;55571.53;5155161;27;20441;-74
2023/06/14 04:27:02;;;;;;;13.82;9.43;;;;;;;-140.66;100.00;55571.53;5155295;27;20033;-75
2023/06/14 04:29:49;;;;;;;13.25;8.68;;;;;;;-140.66;100.00;55571.53;5161094;27;20057;-75
2023/06/14 04:32:38;;;;;;;14.68;8.45;;;;;;;-140.66;100.00;55571.53;5155760;27;20355;-75
2023/06/14 04:35:25;;;;;;;13.02;9.40;;;;;;;-140.66;100.00;55571.53;5156467;27;20027;-75
2023/06/14 04:38:11;;;;;;;14.38;8.98;;;;;;;-140.66;100.00;55571.53;5156853;27;20019;-74
2023/06/14 04:40:56;;;;;;;12.07;8.23;;;;;;;-140.66;100.00;55571.53;5155456;27;20341;-75
2023/06/14 04:43:42;;;;;;;10.52;8.05;;;;;;;-140.66;100.00;55571.53;5141194;27;20477;-75
2023/06/14 04:46:28;;;;;;;11.38;8.20;;;;;;;-140.66;100.00;55571.53;5154538;27;20026;-75
2023/06/14 04:49:18;;;;;;;10.25;7.63;;;;;;;-140.66;100.00;55571.53;5139337;27;20079;-75
2023/06/14 04:52:04;;;;;;;7.97;6.80;;;;;;;-140.66;100.00;55571.53;5155701;27;20398;-75
2023/06/14 04:54:52;;;;;;;7.30;6.50;;;;;;;-140.66;100.00;55571.53;5154611;27;20027;-75
2023/06/14 04:57:38;;;;;;;11.95;6.28;;;;;;;-140.66;100.00;55571.53;5154325;27;20107;-75
2023/06/14 05:00:24;;;;;;;7.85;6.50;;;;;;;-140.66;100.00;55571.53;5153678;27;20018;-75
2023/06/14 05:03:12;;;;;;;8.30;6.38;;;;;;;-140.66;100.00;55571.53;5154221;27;20030;-75
2023/06/14 05:06:00;;;;;;;7.53;6.25;;;;;;;-140.66;100.00;55571.53;5154014;27;20019;-75
2023/06/14 05:08:46;;;;;;;15.10;6.43;;;;;;;-140.66;100.00;55571.53;5140707;27;20445;-75
2023/06/14 05:11:31;;;;;;;8.45;6.28;;;;;;;-140.66;100.00;55571.53;5156055;27;20037;-74
2023/06/14 05:14:18;;;;;;;11.15;6.40;;;;;;;-140.66;100.00;55571.53;5157097;27;20023;-75
2023/06/14 05:17:04;;;;;;;9.45;6.10;;;;;;;-140.66;100.00;55571.53;5156957;27;20026;-75
2023/06/14 05:19:50;;;;;;;8.43;6.43;;;;;;;-140.66;100.00;55571.53;5157322;27;20035;-75
2023/06/14 05:22:36;;;;;;;19.35;6.25;;;;;;;-140.66;100.00;55571.53;5158121;27;20030;-75
2023/06/14 05:25:22;;;;;;;11.82;6.18;;;;;;;-140.66;100.00;55571.53;5157714;27;20026;-74
2023/06/14 05:28:08;;;;;;;8.38;5.85;;;;;;;-140.66;100.00;55571.53;5157041;27;20033;-74
2023/06/14 05:30:54;;;;;;;12.25;5.95;;;;;;;-140.66;100.00;55571.53;5157742;27;20019;-75
2023/06/14 05:33:40;;;;;;;12.13;5.70;;;;;;;-140.66;100.00;55571.53;5157547;27;20026;-75
2023/06/14 05:36:27;;;;;;;12.73;6.40;;;;;;;-140.66;100.00;55571.53;5156787;27;20049;-75
2023/06/14 05:39:13;;;;;;;8.40;5.90;;;;;;;-140.66;100.00;55571.53;5142831;27;20023;-75
2023/06/14 05:41:59;;;;;;;10.35;6.20;;;;;;;-140.66;100.00;55571.53;5157790;27;20030;-76
2023/06/14 05:44:44;;;;;;;9.60;6.05;;;;;;;-140.66;100.00;55571.53;5157763;27;20118;-74
2023/06/14 05:47:31;;;;;;;14.00;7.18;;;;;;;-140.66;100.00;55571.53;5157317;27;20015;-75
2023/06/14 05:50:16;;;;;;;8.93;5.93;;;;;;;-140.66;100.00;55571.53;5156519;27;20034;-75
2023/06/14 05:53:02;;;;;;;8.52;6.32;;;;;;;-140.66;100.00;55571.53;5156217;27;20023;-75
2023/06/14 05:55:49;;;;;;;11.90;6.88;;;;;;;-140.66;100.00;55571.53;5142272;27;20026;-75
2023/06/14 05:58:34;;;;;;;17.60;6.40;;;;;;;-140.66;100.00;55571.53;5156428;27;20027;-75
2023/06/14 06:01:20;;;;;;;8.88;6.40;;;;;;;-140.66;100.00;55571.53;5142358;27;20065;-75
2023/06/14 06:04:06;;;;;;;7.60;6.50;;;;;;;-140.66;100.00;55571.53;5155902;27;20023;-75
2023/06/14 06:06:51;;;;;;;8.68;6.55;;;;;;;-140.66;100.00;55571.53;5156407;27;20038;-74
2023/06/14 06:09:37;;;;;;;11.63;7.00;;;;;;;-140.66;100.00;55571.53;5156115;27;20035;-75
2023/06/14 06:12:23;;;;;;;11.75;7.40;;;;;;;-140.66;100.00;55571.53;5141237;27;20022;-75
2023/06/14 06:15:11;;;;;;;8.30;7.03;;;;;;;-140.66;100.00;55571.53;5156250;27;20066;-74
2023/06/14 06:17:57;;;;;;;8.93;6.32;;;;;;;-140.66;100.00;55571.53;5141954;27;20022;-74
2023/06/14 06:20:43;;;;;;;13.48;6.82;;;;;;;-140.66;100.00;55571.53;5121060;27;20051;-75
2023/06/14 06:23:29;;;;;;;17.88;8.40;;;;;;;-140.66;100.00;55571.53;5119483;27;20117;-75
2023/06/14 06:26:15;;;;;;;11.40;7.30;;;;;;;-140.66;100.00;55571.53;5136319;27;20456;-73
2023/06/14 06:29:01;;;;;;;33.58;8.68;;;;;;;-140.66;100.00;55571.53;5121184;27;20632;-75
2023/06/14 06:31:47;;;;;;;8.55;7.00;;;;;;;-140.66;100.00;55571.53;5135411;27;20027;-74
2023/06/14 06:34:32;;;;;;;28.35;8.35;;;;;;;-140.66;100.00;55571.53;5136659;27;20066;-74
2023/06/14 06:37:19;;;;;;;27.17;11.45;;;;;;;-140.66;100.00;55571.53;5121512;27;20034;-76
2023/06/14 06:40:05;;;;;;;10.98;6.72;;;;;;;-140.66;100.00;55571.53;5135969;27;20399;-76
2023/06/14 06:42:51;;;;;;;12.00;6.63;;;;;;;-140.66;100.00;55571.53;5136579;27;20020;-75
2023/06/14 06:45:37;;;;;;;24.05;7.25;;;;;;;-140.66;100.00;55571.53;5136701;27;20015;-75
2023/06/14 06:48:22;;;;;;;13.43;6.03;;;;;;;-140.66;100.00;55571.53;5136879;27;20050;-75
2023/06/14 06:51:08;;;;;;;15.73;6.80;;;;;;;-140.66;100.00;55571.53;5137019;27;20023;-81
2023/06/14 06:53:55;;;;;;;11.65;6.25;;;;;;;-140.66;100.00;55571.53;5119878;27;20031;-82
2023/06/14 06:56:40;;;;;;;10.10;6.75;;;;;;;-140.66;100.00;55571.53;5120494;27;20031;-82
2023/06/14 06:59:26;;;;;;;20.55;8.25;;;;;;;-140.66;100.00;55571.53;5120075;27;20035;-82
2023/06/14 07:02:12;;;;;;;8.90;6.32;;;;;;;-140.66;100.00;55571.53;5135984;27;20023;-83
2023/06/14 07:04:57;;;;;;;14.95;6.90;;;;;;;-140.66;100.00;55571.53;5135933;27;20038;-82
2023/06/14 07:07:43;;;;;;;9.23;5.97;;;;;;;-140.66;100.00;55571.53;5121711;27;20027;-80
2023/06/14 07:10:29;;;;;;;12.68;6.00;;;;;;;-140.66;100.00;55571.53;5135968;27;20084;-74
2023/06/14 07:13:16;;;;;;;14.98;6.00;;;;;;;-140.66;100.00;55571.53;5137268;27;20023;-82
2023/06/14 07:16:02;;;;;;;11.25;6.13;;;;;;;-140.66;100.00;55571.53;5135817;27;20065;-83
2023/06/14 07:18:48;;;;;;;11.00;6.40;;;;;;;-140.66;100.00;55571.53;5126509;27;20058;-82
2023/06/14 07:21:34;;;;;;;11.57;6.55;;;;;;;-140.66;100.00;55571.53;5156750;27;20026;-82
2023/06/14 07:24:21;;;;;;;8.85;5.60;;;;;;;-140.66;100.00;55571.53;5155045;27;20018;-83
2023/06/14 07:27:07;;;;;;;10.57;6.93;;;;;;;-140.66;100.00;55571.53;5141738;27;20030;-83
2023/06/14 07:29:53;;;;;;;7.13;5.18;;;;;;;-140.66;100.00;55571.53;5155472;27;20107;-83
2023/06/14 07:32:39;;;;;;;7.18;5.28;;;;;;;-140.66;100.00;55571.53;5140734;27;20483;-82
2023/06/14 07:35:25;;;;;;;6.38;5.15;;;;;;;-140.66;100.00;55571.53;5154151;27;20031;-84
2023/06/14 07:38:11;;;;;;;5.45;4.93;;;;;;;-140.66;100.00;55571.53;5154917;27;20027;-83
2023/06/14 07:40:56;;;;;;;9.15;5.25;;;;;;;-140.66;100.00;55571.53;5155742;27;20117;-83
2023/06/14 07:43:42;;;;;;;7.47;5.32;;;;;;;-140.66;100.00;55571.53;5155125;27;20030;-83
2023/06/14 07:46:28;;;;;;;8.20;5.43;;;;;;;-140.66;100.00;55571.53;5140405;27;20038;-82
2023/06/14 07:49:14;;;;;;;10.32;5.13;;;;;;;-140.66;100.00;55571.53;5154510;27;20022;-82
2023/06/14 07:51:59;;;;;;;6.38;5.10;;;;;;;-140.66;100.00;55571.53;5155568;27;20099;-81
2023/06/14 07:54:45;;;;;;;6.88;5.28;;;;;;;-140.66;100.00;55571.53;5139964;27;20027;-82
2023/06/14 07:57:31;;;;;;;8.77;5.60;;;;;;;-140.66;100.00;55571.53;5140862;27;20123;-83
2023/06/14 08:00:18;;;;;;;12.68;5.50;;;;;;;-140.66;100.00;55571.53;5140315;27;20034;-83
2023/06/14 08:03:04;;;;;;;9.30;5.20;;;;;;;-140.66;100.00;55571.53;5140015;27;20023;-82
2023/06/14 08:05:50;;;;;;;12.85;5.78;;;;;;;-140.66;100.00;55571.53;5140449;27;20027;-83
2023/06/14 08:08:35;;;;;;;8.00;6.30;;;;;;;-140.66;100.00;55571.53;5155963;27;20373;-84
2023/06/14 08:11:23;;;;;;;13.90;6.30;;;;;;;-140.66;100.00;55571.53;5139504;27;20105;-83
2023/06/14 08:14:09;;;;;;;9.35;5.93;;;;;;;-140.66;100.00;55571.53;5155314;27;20026;-75
2023/06/14 08:16:55;;;;;;;8.95;5.93;;;;;;;-140.66;100.00;55571.53;5139841;27;20019;-74
2023/06/14 08:19:41;;;;;;;15.32;7.00;;;;;;;-140.66;100.00;55571.53;5154676;27;20073;-74
2023/06/14 08:22:28;;;;;;;7.78;6.20;;;;;;;-140.66;100.00;55571.53;5155116;27;20349;-74
2023/06/14 08:25:14;;;;;;;10.98;5.70;;;;;;;-140.66;100.00;55571.53;5154974;27;20092;-73
2023/06/14 08:28:00;;;;;;;7.35;5.40;;;;;;;-140.66;100.00;55571.53;5155109;27;20030;-79
2023/06/14 08:30:46;;;;;;;8.00;5.65;;;;;;;-140.66;100.00;55571.53;5155126;27;20364;-83
2023/06/14 08:33:33;;;;;;;9.13;6.00;;;;;;;-140.66;100.00;55571.53;5140175;27;20027;-82
2023/06/14 08:36:18;;;;;;;10.60;6.13;;;;;;;-140.66;100.00;55571.53;5157185;27;20027;-82
2023/06/14 08:39:04;;;;;;;7.53;5.25;;;;;;;-140.66;100.00;55571.53;5141971;27;20107;-83
2023/06/14 08:41:52;;;;;;;8.07;5.32;;;;;;;-140.66;100.00;55571.53;5157206;27;20434;-83
2023/06/14 08:44:38;;;;;;;6.63;5.10;;;;;;;-140.66;100.00;55571.53;5156117;27;20019;-74
2023/06/14 08:47:26;;;;;;;9.25;5.78;;;;;;;-140.66;100.00;55571.53;5158193;27;20030;-76
2023/06/14 08:50:15;;;;;;;10.77;5.80;;;;;;;-140.66;100.00;55571.53;5159241;27;20034;-75
2023/06/14 08:53:02;;;;;;;7.05;4.90;;;;;;;-140.66;100.00;55571.53;5158568;27;20095;-76
2023/06/14 08:55:48;;;;;;;8.82;5.47;;;;;;;-140.66;100.00;55571.53;5159319;27;20076;-75
2023/06/14 08:58:34;;;;;;;7.57;4.88;;;;;;;-140.66;100.00;55571.53;5163693;27;20042;-74
2023/06/14 09:01:21;;;;;;;8.45;5.47;;;;;;;-140.66;100.00;55571.53;5158623;27;20467;-75
2023/06/14 09:04:08;;;;;;;8.02;5.13;;;;;;;-140.66;100.00;55571.53;5159165;27;20361;-75
2023/06/14 09:06:54;;;;;;;9.60;5.13;;;;;;;-140.66;100.00;55571.53;5159201;27;20371;-75
2023/06/14 09:09:41;;;;;;;7.43;5.15;;;;;;;-140.66;100.00;55571.53;5159815;27;20023;-82
2023/06/14 09:12:28;;;;;;;9.25;4.90;;;;;;;-140.66;100.00;55571.53;5173588;27;20019;-82
2023/06/14 09:15:14;;;;;;;8.55;4.50;;;;;;;-140.66;100.00;55571.53;5164106;27;20023;-81
2023/06/14 09:18:03;;;;;;;7.55;4.70;;;;;;;-140.66;100.00;55571.53;5148108;27;20031;-82
2023/06/14 09:20:49;;;;;;;6.93;4.15;;;;;;;-140.66;100.00;55571.53;5153645;27;20440;-81
2023/06/14 09:23:46;;;;;;;6.03;3.65;;;;;;;-140.66;100.00;55571.53;5142358;27;20014;-81
2023/06/14 09:26:31;;;;;;;7.68;4.50;;;;;;;-140.66;100.00;55571.53;5157674;27;20099;-80
2023/06/14 09:29:18;;;;;;;5.53;4.13;;;;;;;-140.66;100.00;55571.53;5143492;27;20168;-82
2023/06/14 09:32:05;;;;;;;7.03;3.65;;;;;;;-140.66;100.00;55571.53;5143332;27;20096;-75
2023/06/14 09:34:51;;;;;;;5.63;3.90;;;;;;;-140.66;100.00;55571.53;5142601;27;20026;-74
2023/06/14 09:37:40;;;;;;;4.60;3.28;;;;;;;-140.66;100.00;55571.53;5141994;27;20031;-75
2023/06/14 09:40:26;;;;;;;5.40;2.90;;;;;;;-140.66;100.00;55571.53;5142482;27;20054;-74
2023/06/14 09:43:12;;;;;;;6.05;3.63;;;;;;;-140.66;100.00;55571.53;5158319;27;20041;-75
2023/06/14 09:45:58;;;;;;;5.72;3.50;;;;;;;-140.66;100.00;55571.53;5157549;27;20014;-75
2023/06/14 09:48:44;;;;;;;6.55;3.47;;;;;;;-140.66;100.00;55571.53;5142993;27;20110;-75
2023/06/14 09:51:30;;;;;;;5.45;3.40;;;;;;;-140.66;100.00;55571.53;5157634;27;20033;-82
2023/06/14 09:54:20;;;;;;;7.13;3.72;;;;;;;-140.66;100.00;55571.53;5142665;27;20023;-80
2023/06/14 09:57:07;;;;;;;5.60;3.78;;;;;;;-140.66;100.00;55571.53;5142072;27;20091;-79
2023/06/14 10:00:00;;;;;;;3.88;3.42;;;;;;;-140.66;100.00;55571.53;5142572;27;20019;-79
2023/06/14 10:02:54;;;;;;;9.35;3.97;;;;;;;-140.66;100.00;55571.53;5158605;27;20030;-79
2023/06/14 10:05:46;;;;;;;7.30;3.80;;;;;;;-140.66;100.00;55571.53;5142043;27;20023;-79
2023/06/14 10:08:34;;;;;;;5.50;3.58;;;;;;;-140.66;100.00;55571.53;5142115;27;20023;-80
2023/06/14 10:11:20;;;;;;;4.25;3.83;;;;;;;-140.66;100.00;55571.53;5156477;27;20039;-79
2023/06/14 10:14:06;;;;;;;11.35;4.20;;;;;;;-140.66;100.00;55571.53;5156981;27;20019;-79
2023/06/14 10:17:16;;;;;;;4.10;3.70;;;;;;;-140.66;100.00;55571.53;5142394;27;20026;-79
2023/06/14 10:20:27;;;;;;;9.52;4.28;;;;;;;-140.66;100.00;55571.53;5142810;27;20126;-79
2023/06/14 10:23:19;;;;;;;7.20;4.00;;;;;;;-140.66;100.00;55571.53;5141631;27;20031;-79
2023/06/14 10:26:05;;;;;;;5.85;3.42;;;;;;;-140.66;100.00;55571.53;5142381;27;20022;-79
2023/06/14 10:29:06;;;;;;;4.25;3.85;;;;;;;-140.66;100.00;55571.53;5156394;27;20069;-80
2023/06/14 10:31:57;;;;;;;5.88;3.85;;;;;;;-140.66;100.00;55571.53;5155613;27;20019;-80
2023/06/14 10:34:43;;;;;;;9.15;4.13;;;;;;;-140.66;100.00;55571.53;5155823;27;20052;-79
2023/06/14 10:37:28;;;;;;;5.80;3.75;;;;;;;-140.66;100.00;55571.53;5140747;27;20397;-76
2023/06/14 10:40:30;;;;;;;11.73;4.00;;;;;;;-140.66;100.00;55571.53;5155251;27;20386;-75
2023/06/14 10:43:23;;;;;;;7.82;4.07;;;;;;;-140.66;100.00;55571.53;5155671;27;20046;-75
2023/06/14 10:46:17;;;;;;;4.80;3.90;;;;;;;-140.66;100.00;55571.53;5156673;27;20027;-74
2023/06/14 10:49:03;;;;;;;5.50;3.90;;;;;;;-140.66;100.00;55571.53;5156613;27;20023;-76
2023/06/14 10:51:51;;;;;;;4.80;4.03;;;;;;;-140.66;100.00;55571.53;5157507;27;20062;-81
2023/06/14 10:54:38;;;;;;;5.70;3.70;;;;;;;-140.66;100.00;55571.53;5157667;27;20450;-74
2023/06/14 10:57:24;;;;;;;7.25;4.28;;;;;;;-140.66;100.00;55571.53;5158563;27;20030;-76
2023/06/14 11:00:15;;;;;;;4.75;3.97;;;;;;;-140.66;100.00;55571.53;5141017;27;20090;-76
2023/06/14 11:03:25;;;;;;;5.70;3.83;;;;;;;-140.66;100.00;55571.53;5157048;27;20064;-74
2023/06/14 11:06:15;;;;;;;6.20;4.30;;;;;;;-140.66;100.00;55571.53;5157178;27;20516;-75
2023/06/14 11:09:39;;;;;;;7.18;4.30;;;;;;;-140.66;100.00;55571.53;5141469;27;20042;-74
2023/06/14 11:12:28;;;;;;;5.95;4.38;;;;;;;-140.66;100.00;55571.53;5141175;27;20023;-75
2023/06/14 11:15:14;;;;;;;10.85;4.60;;;;;;;-140.66;100.00;55571.53;5158149;27;20118;-79
2023/06/14 11:18:02;;;;;;;8.93;4.13;;;;;;;-140.66;100.00;55571.53;5143426;27;20041;-81
2023/06/14 11:20:48;;;;;;;7.25;4.05;;;;;;;-140.66;100.00;55571.53;5141291;27;20455;-81
2023/06/14 11:23:35;;;;;;;5.50;4.18;;;;;;;-140.66;100.00;55571.53;5157155;27;20027;-81
2023/06/14 11:26:33;;;;;;;4.40;4.00;;;;;;;-140.66;100.00;55571.53;5156741;27;20367;-79
2023/06/14 11:29:20;;;;;;;7.53;4.00;;;;;;;-140.66;100.00;55571.53;5157486;27;20079;-74
2023/06/14 11:32:12;;;;;;;6.70;4.20;;;;;;;-140.66;100.00;55571.53;5157473;27;20032;-78
2023/06/14 11:34:58;;;;;;;10.30;5.15;;;;;;;-140.66;100.00;55571.53;5142902;27;20027;-74
2023/06/14 11:37:45;;;;;;;4.95;4.40;;;;;;;-140.66;100.00;55571.53;5156428;27;20034;-73
2023/06/14 11:40:30;;;;;;;4.68;4.15;;;;;;;-140.66;100.00;55571.53;5139883;27;20023;-75
2023/06/14 11:43:17;;;;;;;6.70;3.97;;;;;;;-140.66;100.00;55571.53;5139014;27;20341;-74
2023/06/14 11:46:02;;;;;;;7.63;4.70;;;;;;;-140.66;100.00;55571.53;5155558;27;20022;-75
2023/06/14 11:48:48;;;;;;;5.32;4.50;;;;;;;-140.66;100.00;55571.53;5154708;27;20022;-75
2023/06/14 11:51:35;;;;;;;4.97;4.30;;;;;;;-140.66;100.00;55571.53;5154538;27;20087;-74
2023/06/14 11:54:21;;;;;;;7.22;4.40;;;;;;;-140.66;100.00;55571.53;5139436;27;20034;-74
2023/06/14 11:57:07;;;;;;;6.47;4.13;;;;;;;-140.66;100.00;55571.53;5155318;27;20412;-74
2023/06/14 11:59:55;;;;;;;6.72;4.18;;;;;;;-140.66;100.00;55571.53;5154394;27;20035;-72
2023/06/14 12:02:41;;;;;;;5.80;4.15;;;;;;;-140.66;100.00;55571.53;5153668;27;20030;-73
2023/06/14 12:05:27;;;;;;;6.05;4.05;;;;;;;-140.66;100.00;55571.53;5155422;27;20030;-72
2023/06/14 12:08:17;;;;;;;6.50;4.10;;;;;;;-140.66;100.00;55571.53;5155221;27;20037;-77
2023/06/14 12:11:03;;;;;;;6.15;4.25;;;;;;;-140.66;100.00;55571.53;5139210;27;20464;-73
2023/06/14 12:13:49;;;;;;;4.63;4.05;;;;;;;-140.66;100.00;55571.53;5140603;27;20030;-72
2023/06/14 12:16:37;;;;;;;5.10;4.25;;;;;;;-140.66;100.00;55571.53;5154637;27;20022;-73
2023/06/14 12:19:26;;;;;;;7.13;4.43;;;;;;;-140.66;100.00;55571.53;5139881;27;20061;-72
2023/06/14 12:22:14;;;;;;;8.32;4.47;;;;;;;-140.66;100.00;55571.53;5155991;27;20113;-73
2023/06/14 12:25:00;;;;;;;8.07;4.43;;;;;;;-140.66;100.00;55571.53;5159160;27;20015;-73
2023/06/14 12:27:46;;;;;;;8.70;4.15;;;;;;;-140.66;100.00;55571.53;5143854;27;20087;-73
2023/06/14 12:30:34;;;;;;;7.25;4.45;;;;;;;-140.66;100.00;55571.53;5157476;27;20018;-80
2023/06/14 12:33:21;;;;;;;5.55;3.92;;;;;;;-140.66;100.00;55571.53;5159625;27;20368;-80
2023/06/14 12:36:10;;;;;;;5.60;4.00;;;;;;;-140.66;100.00;55571.53;5143222;27;20375;-73